createdAt,value
2023-08-08T00:04:20.875Z,34.25
2023-08-08T00:09:25.944Z,38.75
2023-08-08T00:14:31.292Z,36.25
2023-08-08T00:19:36.854Z,33.25
2023-08-08T00:24:41.349Z,34.00
2023-08-08T00:29:46.432Z,32.75
2023-08-08T00:34:52.449Z,34.75
2023-08-08T00:39:57.354Z,37.00
2023-08-08T00:45:06.580Z,35.25
2023-08-08T00:50:11.770Z,35.75
2023-08-08T00:55:18.557Z,33.75
2023-08-08T01:00:23.450Z,36.75
2023-08-08T01:05:33.126Z,32.25
2023-08-08T01:10:41.619Z,29.25
2023-08-08T01:15:47.572Z,27.75
2023-08-08T01:20:53.668Z,29.25
2023-08-08T01:25:59.568Z,26.00
2023-08-08T01:31:05.046Z,22.00
2023-08-08T01:36:16.634Z,25.50
2023-08-08T01:41:21.849Z,22.75
2023-08-08T01:46:27.200Z,22.00
2023-08-08T01:51:32.646Z,22.25
2023-08-08T01:56:36.986Z,21.25
2023-08-08T02:01:41.522Z,21.50
2023-08-08T02:06:46.065Z,17.00
2023-08-08T02:11:50.744Z,18.75
2023-08-08T02:16:54.966Z,19.00
2023-08-08T02:21:59.638Z,20.00
2023-08-08T02:27:05.258Z,24.00
2023-08-08T02:32:09.953Z,20.25
2023-08-08T02:37:14.578Z,24.75
2023-08-08T02:42:18.857Z,17.75
2023-08-08T02:47:23.238Z,20.00
2023-08-08T02:52:29.686Z,16.25
2023-08-08T02:57:34.508Z,13.00
2023-08-08T03:02:39.029Z,14.00
2023-08-08T03:07:43.494Z,15.75
2023-08-08T03:12:49.750Z,16.75
2023-08-08T03:17:55.656Z,14.00
2023-08-08T03:23:00.633Z,17.25
2023-08-08T03:28:07.699Z,17.00
2023-08-08T03:33:12.236Z,12.50
2023-08-08T03:38:17.233Z,13.75
2023-08-08T03:43:22.561Z,15.75
2023-08-08T03:48:27.726Z,15.00
2023-08-08T03:53:31.897Z,14.50
2023-08-08T03:58:36.718Z,12.00
2023-08-08T04:03:41.374Z,15.00
2023-08-08T04:08:45.701Z,14.25
2023-08-08T04:13:50.253Z,12.25
2023-08-08T04:18:55.249Z,13.75
2023-08-08T04:24:01.013Z,13.00
2023-08-08T04:29:05.931Z,11.50
2023-08-08T04:34:10.469Z,14.00
2023-08-08T04:39:15.044Z,12.00
2023-08-08T04:44:19.444Z,11.50
2023-08-08T04:49:24.152Z,12.00
2023-08-08T04:54:29.508Z,10.00
2023-08-08T04:59:34.066Z,9.50
2023-08-08T05:04:38.646Z,9.50
2023-08-08T05:09:43.581Z,11.50
2023-08-08T05:14:48.960Z,11.00
2023-08-08T05:19:53.344Z,11.75
2023-08-08T05:24:58.119Z,11.25
2023-08-08T05:30:02.631Z,12.00
2023-08-08T05:35:07.473Z,9.75
2023-08-08T05:40:13.158Z,11.75
2023-08-08T05:45:17.721Z,14.25
2023-08-08T05:50:22.323Z,18.50
2023-08-08T05:55:27.546Z,14.00
2023-08-08T06:00:32.407Z,18.25
2023-08-08T06:05:37.078Z,17.00
2023-08-08T06:10:41.669Z,14.50
2023-08-08T06:15:46.246Z,16.75
2023-08-08T06:20:50.550Z,13.25
2023-08-08T06:25:54.871Z,18.25
2023-08-08T06:31:01.450Z,13.50
2023-08-08T06:36:05.948Z,15.00
2023-08-08T06:41:11.123Z,17.00
2023-08-08T06:46:15.994Z,15.25
2023-08-08T06:51:20.194Z,14.25
2023-08-08T06:56:24.903Z,13.50
2023-08-08T07:01:29.463Z,12.25
2023-08-08T07:06:35.189Z,13.50
2023-08-08T07:11:39.868Z,15.75
2023-08-08T07:16:44.245Z,10.75
2023-08-08T07:21:49.277Z,13.25
2023-08-08T07:26:53.863Z,16.50
2023-08-08T07:31:58.461Z,11.75
2023-08-08T07:37:03.132Z,9.00
2023-08-08T07:42:07.888Z,14.25
2023-08-08T07:47:13.656Z,11.75
2023-08-08T07:52:18.520Z,12.25
2023-08-08T07:57:22.825Z,12.00
2023-08-08T08:02:27.357Z,11.25
2023-08-08T08:07:32.698Z,14.00
2023-08-08T08:12:37.496Z,10.50
2023-08-08T08:17:42.312Z,11.50
2023-08-08T08:22:47.286Z,12.50
2023-08-08T08:27:51.787Z,12.00
2023-08-08T08:32:56.081Z,11.50
2023-08-08T08:38:00.672Z,16.75
2023-08-08T08:43:06.745Z,11.75
2023-08-08T08:48:15.376Z,14.50
2023-08-08T08:53:21.173Z,12.75
2023-08-08T08:58:28.187Z,11.00
2023-08-08T09:03:32.665Z,12.00
2023-08-08T09:08:37.149Z,14.25
2023-08-08T09:13:42.596Z,10.50
2023-08-08T09:18:47.010Z,12.00
2023-08-08T09:23:52.539Z,13.50
2023-08-08T09:28:57.204Z,10.00
2023-08-08T09:34:02.221Z,10.00
2023-08-08T09:39:07.403Z,14.50
2023-08-08T09:44:12.314Z,13.75
2023-08-08T09:49:17.583Z,12.00
2023-08-08T09:54:22.682Z,10.25
2023-08-08T09:59:27.331Z,11.50
2023-08-08T10:04:31.752Z,12.00
2023-08-08T10:09:37.021Z,12.50
2023-08-08T10:14:45.054Z,12.00
2023-08-08T10:19:54.641Z,12.00
2023-08-08T10:24:59.304Z,11.00
2023-08-08T10:30:07.890Z,11.00
2023-08-08T10:35:13.910Z,10.75
2023-08-08T10:40:20.217Z,10.50
2023-08-08T10:45:32.159Z,13.75
2023-08-08T10:50:40.838Z,11.25
2023-08-08T10:55:46.976Z,10.75
2023-08-08T11:00:53.599Z,13.00
2023-08-08T11:05:58.548Z,13.50
2023-08-08T11:11:03.801Z,21.25
2023-08-08T11:16:08.895Z,14.50
2023-08-08T11:21:18.655Z,16.00
2023-08-08T11:26:25.157Z,15.50
2023-08-08T11:31:31.326Z,13.25
2023-08-08T11:36:37.604Z,16.75
2023-08-08T11:41:42.987Z,11.75
2023-08-08T11:46:51.096Z,13.50
2023-08-08T11:51:59.987Z,12.50
2023-08-08T11:57:04.689Z,14.75
2023-08-08T12:02:10.870Z,13.25
2023-08-08T12:07:15.832Z,14.75
2023-08-08T12:12:22.371Z,13.00
2023-08-08T12:17:28.892Z,14.75
2023-08-08T12:22:33.973Z,11.00
2023-08-08T12:27:38.841Z,13.25
2023-08-08T12:32:44.085Z,13.75
2023-08-08T12:37:49.677Z,12.75
2023-08-08T12:42:55.057Z,10.75
2023-08-08T12:48:00.290Z,12.75
2023-08-08T12:53:06.275Z,13.50
2023-08-08T12:58:12.047Z,15.00
2023-08-08T13:03:17.916Z,16.00
2023-08-08T13:08:22.723Z,14.00
2023-08-08T13:13:28.714Z,15.25
2023-08-08T13:18:33.556Z,18.50
2023-08-08T13:23:38.235Z,15.75
2023-08-08T13:28:43.401Z,14.00
2023-08-08T13:33:48.586Z,14.00
2023-08-08T13:38:55.206Z,14.50
2023-08-08T13:44:00.656Z,15.25
2023-08-08T13:49:05.913Z,16.75
2023-08-08T13:54:11.259Z,16.50
2023-08-08T13:59:16.785Z,18.50
2023-08-08T14:04:21.694Z,15.50
2023-08-08T14:09:26.479Z,17.50
2023-08-08T14:14:32.629Z,16.00
2023-08-08T14:19:37.343Z,17.50
2023-08-08T14:24:42.679Z,17.75
2023-08-08T14:29:47.713Z,20.25
2023-08-08T14:34:52.551Z,22.75
2023-08-08T14:39:57.362Z,17.25
2023-08-08T14:45:02.387Z,19.25
2023-08-08T14:50:08.537Z,19.50
2023-08-08T14:55:13.914Z,20.25
2023-08-08T15:00:19.729Z,18.75
2023-08-08T15:05:24.952Z,20.00
2023-08-08T15:10:29.723Z,15.25
2023-08-08T15:15:35.678Z,18.75
2023-08-08T15:20:40.846Z,19.00
2023-08-08T15:25:46.193Z,16.75
2023-08-08T15:30:51.776Z,17.00
2023-08-08T15:35:56.670Z,16.75
2023-08-08T15:41:04.198Z,17.50
2023-08-08T15:46:10.642Z,18.50
2023-08-08T15:51:20.219Z,16.00
2023-08-08T15:56:28.821Z,14.75
2023-08-08T16:01:34.110Z,14.25
2023-08-08T16:06:40.517Z,18.50
2023-08-08T16:11:45.663Z,18.00
2023-08-08T16:16:50.628Z,18.25
2023-08-08T16:21:55.889Z,17.75
2023-08-08T16:27:01.698Z,19.00
2023-08-08T16:32:06.953Z,16.75
2023-08-08T16:37:11.441Z,13.00
2023-08-08T16:42:18.349Z,17.00
2023-08-08T16:47:23.490Z,16.25
2023-08-08T16:52:28.585Z,22.00
2023-08-08T16:57:34.862Z,18.00
2023-08-08T17:02:40.616Z,14.25
2023-08-08T17:07:46.676Z,19.75
2023-08-08T17:12:53.965Z,19.50
2023-08-08T17:17:58.947Z,21.25
2023-08-08T17:23:04.077Z,18.00
2023-08-08T17:28:08.855Z,20.00
2023-08-08T17:33:14.527Z,19.00
2023-08-08T17:38:19.310Z,13.50
2023-08-08T17:43:24.682Z,18.25
2023-08-08T17:48:29.667Z,16.50
2023-08-08T17:53:35.031Z,15.75
2023-08-08T17:58:39.896Z,15.00
2023-08-08T18:03:44.718Z,14.25
2023-08-08T18:08:49.745Z,18.50
2023-08-08T18:13:54.564Z,15.75
2023-08-08T18:18:59.521Z,15.25
2023-08-08T18:24:04.677Z,17.00
2023-08-08T18:29:09.869Z,15.25
2023-08-08T18:34:15.260Z,16.00
2023-08-08T18:39:20.385Z,15.50
2023-08-08T18:44:25.119Z,15.75
2023-08-08T18:49:30.704Z,15.00
2023-08-08T18:54:35.618Z,16.75
2023-08-08T18:59:40.289Z,13.75
2023-08-08T19:04:45.501Z,19.50
2023-08-08T19:09:50.596Z,16.50
2023-08-08T19:14:55.548Z,18.25
2023-08-08T19:20:02.168Z,13.00
2023-08-08T19:25:07.846Z,12.00
2023-08-08T19:30:13.006Z,16.25
2023-08-08T19:35:18.009Z,18.75
2023-08-08T19:40:24.386Z,16.75
2023-08-08T19:45:29.247Z,14.75
2023-08-08T19:50:33.990Z,15.00
2023-08-08T19:55:39.227Z,15.75
2023-08-08T20:00:44.233Z,15.00
2023-08-08T20:05:49.163Z,15.25
2023-08-08T20:10:54.231Z,16.25
2023-08-08T20:15:59.219Z,16.75
2023-08-08T20:21:04.562Z,14.75
2023-08-08T20:26:10.011Z,12.75
2023-08-08T20:31:15.138Z,14.75
2023-08-08T20:36:20.411Z,13.25
2023-08-08T20:41:25.150Z,16.75
2023-08-08T20:46:30.810Z,16.00
2023-08-08T20:51:35.722Z,17.50
2023-08-08T20:56:42.427Z,19.00
2023-08-08T21:01:47.552Z,13.50
2023-08-08T21:06:52.346Z,15.50
2023-08-08T21:11:59.330Z,15.50
2023-08-08T21:17:04.783Z,14.25
2023-08-08T21:22:10.354Z,16.50
2023-08-08T21:27:15.405Z,14.25
2023-08-08T21:32:20.234Z,16.50
2023-08-08T21:37:24.922Z,17.75
2023-08-08T21:42:29.849Z,16.25
2023-08-08T21:47:34.603Z,17.25
2023-08-08T21:52:39.471Z,16.75
2023-08-08T21:57:44.700Z,16.50
2023-08-08T22:02:49.630Z,16.25
2023-08-08T22:08:01.647Z,16.25
2023-08-08T22:13:09.064Z,14.75
2023-08-08T22:18:21.039Z,23.50
2023-08-08T22:23:25.879Z,23.25
2023-08-08T22:28:30.736Z,19.00
2023-08-08T22:33:35.485Z,21.00
2023-08-08T22:38:40.637Z,16.75
2023-08-08T22:43:47.013Z,18.25
2023-08-08T22:48:52.127Z,21.00
2023-08-08T22:53:56.857Z,24.25
2023-08-08T22:59:01.869Z,21.50
2023-08-08T23:04:06.730Z,20.50
2023-08-08T23:09:11.905Z,19.25
2023-08-08T23:14:16.860Z,22.50
2023-08-08T23:19:21.984Z,23.50
2023-08-08T23:24:27.611Z,22.25
2023-08-08T23:29:32.541Z,27.75
2023-08-08T23:34:37.580Z,24.00
2023-08-08T23:39:42.559Z,22.50
2023-08-08T23:44:47.420Z,18.50
2023-08-08T23:49:52.110Z,22.50
2023-08-08T23:54:57.398Z,22.75
